Time;durP1;ratioP1;P1;durP2;ratioP2;P2;SDS_P1;SDS_P2;PMS_P1;PMS_P2;Temp;Humidity;BMP_temperature;BMP_pressure;BME280_temperature;BME280_humidity;BME280_pressure;Samples;Min_cycle;Max_cycle;Signal;HPM_P1;HPM_P2
2024/02/23 00:00:17;;;;;;;9.07;4.50;;;8.40;99.90;;;;;;4177132;28;20049;-63
2024/02/23 00:02:19;;;;;;;8.17;3.70;;;8.40;99.90;;;;;;4178008;28;20033;-63
2024/02/23 00:04:20;;;;;;;6.80;3.40;;;8.40;99.90;;;;;;4177383;28;20079;-62
2024/02/23 00:06:23;;;;;;;6.43;4.20;;;8.40;99.90;;;;;;4177963;28;20041;-61
2024/02/23 00:08:24;;;;;;;5.63;3.80;;;8.40;99.90;;;;;;4177123;28;20489;-62
2024/02/23 00:10:25;;;;;;;4.80;3.20;;;8.40;99.90;;;;;;4178336;28;20037;-62
2024/02/23 00:12:27;;;;;;;7.90;4.10;;;8.30;99.90;;;;;;4159043;28;20038;-61
2024/02/23 00:14:30;;;;;;;4.67;3.40;;;8.30;99.90;;;;;;4177260;28;20420;-62
2024/02/23 00:16:40;;;;;;;5.83;3.23;;;8.30;99.90;;;;;;4176783;28;20059;-54
2024/02/23 00:18:41;;;;;;;6.18;3.53;;;8.30;99.90;;;;;;4177491;28;20436;-62
2024/02/23 00:20:43;;;;;;;4.20;2.57;;;8.30;99.90;;;;;;4176676;28;20041;-58
2024/02/23 00:22:44;;;;;;;3.87;2.67;;;8.30;99.90;;;;;;4176945;28;20091;-59
2024/02/23 00:24:46;;;;;;;6.17;2.90;;;8.30;99.90;;;;;;4176758;28;20021;-61
2024/02/23 00:26:48;;;;;;;5.67;2.57;;;8.40;99.90;;;;;;4177452;28;20037;-62
2024/02/23 00:28:49;;;;;;;8.20;4.20;;;8.40;99.90;;;;;;4177179;28;20041;-61
2024/02/23 00:30:51;;;;;;;8.27;4.67;;;8.30;99.90;;;;;;4177496;28;20075;-62
2024/02/23 00:32:52;;;;;;;8.30;4.73;;;8.30;99.90;;;;;;4177830;28;20037;-55
2024/02/23 00:34:53;;;;;;;7.67;4.07;;;8.20;99.90;;;;;;4176748;28;20036;-62
2024/02/23 00:36:54;;;;;;;6.97;4.67;;;8.10;99.90;;;;;;4178468;28;20025;-57
2024/02/23 00:38:56;;;;;;;8.27;4.40;;;8.00;99.90;;;;;;4177111;28;20074;-63
2024/02/23 00:40:57;;;;;;;5.87;3.57;;;7.90;99.90;;;;;;4178273;28;20083;-60
2024/02/23 00:43:00;;;;;;;7.07;2.90;;;7.90;99.90;;;;;;4176337;28;20501;-62
2024/02/23 00:45:01;;;;;;;6.47;3.53;;;7.90;99.90;;;;;;4177203;28;20110;-62
2024/02/23 00:47:04;;;;;;;5.63;2.90;;;8.00;99.90;;;;;;4177101;28;20703;-62
2024/02/23 00:49:06;;;;;;;9.23;3.37;;;8.10;99.90;;;;;;4177437;28;20102;-62
2024/02/23 00:51:07;;;;;;;5.77;3.57;;;8.10;99.90;;;;;;4176522;28;20041;-57
2024/02/23 00:53:08;;;;;;;5.43;2.97;;;8.10;99.90;;;;;;4176811;28;20041;-60
2024/02/23 00:55:10;;;;;;;3.87;2.93;;;8.20;99.90;;;;;;4177534;28;20025;-61
2024/02/23 00:57:11;;;;;;;5.33;3.20;;;8.20;99.90;;;;;;4177277;28;20079;-60
2024/02/23 00:59:13;;;;;;;9.60;3.90;;;8.20;99.90;;;;;;4176777;28;20078;-61
2024/02/23 01:01:14;;;;;;;9.70;3.37;;;8.20;99.90;;;;;;4176594;28;20048;-62
2024/02/23 01:03:15;;;;;;;4.63;2.83;;;8.20;99.90;;;;;;4177673;28;20049;-61
2024/02/23 01:05:17;;;;;;;7.37;3.50;;;8.30;99.90;;;;;;4176523;28;20597;-58
2024/02/23 01:07:18;;;;;;;5.40;2.93;;;8.30;99.90;;;;;;4177456;28;20091;-56
2024/02/23 01:09:20;;;;;;;5.10;2.73;;;8.40;99.90;;;;;;4176301;28;20037;-54
2024/02/23 01:11:21;;;;;;;4.53;2.57;;;8.30;99.90;;;;;;4178159;28;20029;-62
2024/02/23 01:13:22;;;;;;;4.50;3.40;;;8.40;99.90;;;;;;4176105;28;20087;-62
2024/02/23 01:15:24;;;;;;;5.37;3.17;;;8.40;99.90;;;;;;4177601;28;20036;-61
2024/02/23 01:17:25;;;;;;;4.40;2.80;;;8.40;99.90;;;;;;4176804;28;20029;-59
2024/02/23 01:19:26;;;;;;;5.60;3.37;;;8.50;99.90;;;;;;4177239;28;20102;-61
2024/02/23 01:21:27;;;;;;;5.87;2.57;;;8.50;99.90;;;;;;4175952;28;20048;-62
2024/02/23 01:23:28;;;;;;;4.30;2.60;;;8.50;99.90;;;;;;4177612;28;20102;-59
2024/02/23 01:25:29;;;;;;;5.10;3.80;;;8.50;99.90;;;;;;4176503;28;20118;-60
2024/02/23 01:27:31;;;;;;;3.83;2.37;;;8.50;99.90;;;;;;4177187;28;20091;-63
2024/02/23 01:29:32;;;;;;;4.93;2.87;;;8.50;99.90;;;;;;4177243;28;20122;-60
2024/02/23 01:31:34;;;;;;;10.37;3.83;;;8.50;99.90;;;;;;4176150;28;20463;-57
2024/02/23 01:33:36;;;;;;;9.57;4.43;;;8.40;99.90;;;;;;4177587;28;20492;-62
2024/02/23 01:35:37;;;;;;;6.90;4.27;;;8.40;99.90;;;;;;4178131;28;20091;-62
2024/02/23 01:37:38;;;;;;;7.23;3.73;;;8.30;99.90;;;;;;4180431;28;20463;-61
2024/02/23 01:39:40;;;;;;;7.97;4.40;;;8.20;99.90;;;;;;4179799;28;20106;-62
2024/02/23 01:41:42;;;;;;;10.73;5.17;;;8.20;99.90;;;;;;4180959;28;20473;-62
2024/02/23 01:43:45;;;;;;;10.80;5.07;;;8.10;99.90;;;;;;4178951;28;20453;-56
2024/02/23 01:45:46;;;;;;;7.47;4.50;;;8.10;99.90;;;;;;4180967;28;20443;-60
2024/02/23 01:47:47;;;;;;;9.87;5.03;;;8.10;99.90;;;;;;4179299;28;20087;-61
2024/02/23 01:49:48;;;;;;;10.27;5.30;;;8.10;99.90;;;;;;4180602;28;20551;-57
2024/02/23 01:51:51;;;;;;;22.53;5.57;;;8.00;99.90;;;;;;4179796;28;20024;-54
2024/02/23 01:53:52;;;;;;;12.03;5.70;;;8.00;99.90;;;;;;4180322;28;20527;-62
2024/02/23 01:55:54;;;;;;;12.37;5.50;;;8.00;99.90;;;;;;4179913;28;20586;-62
2024/02/23 01:57:56;;;;;;;11.27;5.40;;;8.00;99.90;;;;;;4179429;28;20041;-63
2024/02/23 01:59:57;;;;;;;6.20;4.23;;;8.00;99.90;;;;;;4179961;28;20047;-62
2024/02/23 02:01:58;;;;;;;9.57;4.97;;;8.00;99.90;;;;;;4178992;28;20048;-63
2024/02/23 02:04:00;;;;;;;5.17;3.60;;;8.00;99.90;;;;;;4180833;28;20473;-60
2024/02/23 02:06:01;;;;;;;7.00;3.97;;;8.00;99.90;;;;;;4178581;28;20037;-62
2024/02/23 02:08:03;;;;;;;5.30;3.80;;;8.00;99.90;;;;;;4180023;28;20736;-61
2024/02/23 02:10:08;;;;;;;7.40;3.53;;;8.00;99.90;;;;;;4179131;28;20048;-63
2024/02/23 02:12:09;;;;;;;9.33;4.10;;;7.90;99.90;;;;;;4178946;28;20452;-62
2024/02/23 02:14:10;;;;;;;8.00;4.20;;;8.00;99.90;;;;;;4179239;28;20078;-63
2024/02/23 02:16:11;;;;;;;6.93;4.10;;;7.90;99.90;;;;;;4179899;28;20439;-62
2024/02/23 02:18:13;;;;;;;6.03;2.40;;;8.00;99.90;;;;;;4179374;28;20436;-62
2024/02/23 02:20:14;;;;;;;6.83;2.80;;;8.00;99.90;;;;;;4179261;28;20086;-62
2024/02/23 02:22:15;;;;;;;7.83;3.00;;;8.00;99.90;;;;;;4179171;28;20029;-62
2024/02/23 02:24:17;;;;;;;4.80;2.57;;;8.10;99.90;;;;;;4179366;28;20086;-63
2024/02/23 02:26:19;;;;;;;5.63;2.40;;;8.10;99.90;;;;;;4179264;28;20029;-63
2024/02/23 02:28:20;;;;;;;3.40;2.40;;;8.10;99.90;;;;;;4178791;28;20535;-60
2024/02/23 02:30:22;;;;;;;7.13;2.60;;;8.20;99.90;;;;;;4179420;28;20579;-63
2024/02/23 02:32:23;;;;;;;4.53;2.30;;;8.30;99.90;;;;;;4179381;28;20428;-62
2024/02/23 02:34:25;;;;;;;3.67;2.03;;;8.30;99.90;;;;;;4179649;28;20037;-62
2024/02/23 02:36:26;;;;;;;3.93;2.10;;;8.40;99.90;;;;;;4178421;28;20036;-63
2024/02/23 02:38:27;;;;;;;2.37;1.70;;;8.40;99.90;;;;;;4178969;28;20079;-63
2024/02/23 02:40:28;;;;;;;3.90;2.20;;;8.50;99.90;;;;;;4178632;28;20048;-63
2024/02/23 02:42:29;;;;;;;6.83;2.30;;;8.50;99.90;;;;;;4180128;28;20082;-63
2024/02/23 02:44:31;;;;;;;6.83;2.97;;;8.50;99.90;;;;;;4178803;28;20551;-60
2024/02/23 02:46:32;;;;;;;3.37;2.40;;;8.50;99.90;;;;;;4178848;28;20045;-57
2024/02/23 02:48:33;;;;;;;6.60;2.40;;;8.50;99.90;;;;;;4178894;28;20025;-59
2024/02/23 02:50:35;;;;;;;4.90;3.27;;;8.40;99.90;;;;;;4179271;28;20075;-63
2024/02/23 02:52:37;;;;;;;8.27;3.87;;;8.40;99.90;;;;;;4178114;28;20091;-59
2024/02/23 02:54:38;;;;;;;8.77;3.40;;;8.40;99.90;;;;;;4180084;28;20033;-63
2024/02/23 02:56:47;;;;;;;7.50;3.80;;;8.30;99.90;;;;;;4177709;28;20041;-62
2024/02/23 02:58:48;;;;;;;8.00;3.23;;;8.30;99.90;;;;;;4179618;28;20461;-62
2024/02/23 03:00:49;;;;;;;4.80;3.13;;;8.20;99.90;;;;;;4177664;28;20589;-58
2024/02/23 03:02:51;;;;;;;8.37;3.00;;;8.20;99.90;;;;;;4178317;28;20087;-59
2024/02/23 03:04:54;;;;;;;7.63;2.80;;;8.30;99.90;;;;;;4178858;28;20037;-62
2024/02/23 03:06:55;;;;;;;6.17;3.50;;;8.30;99.90;;;;;;4179051;28;20021;-63
2024/02/23 03:08:56;;;;;;;5.63;3.40;;;8.40;99.90;;;;;;4178296;28;20493;-62
2024/02/23 03:10:58;;;;;;;5.90;2.83;;;8.40;99.90;;;;;;4178251;28;20421;-63
2024/02/23 03:12:59;;;;;;;7.83;2.97;;;8.50;99.90;;;;;;4179279;28;20480;-57
2024/02/23 03:15:02;;;;;;;5.43;2.83;;;8.60;99.90;;;;;;4178192;28;20041;-63
2024/02/23 03:17:03;;;;;;;7.23;2.70;;;8.70;99.90;;;;;;4167970;28;20087;-63
2024/02/23 03:19:05;;;;;;;4.80;2.87;;;8.70;99.90;;;;;;4177811;28;20033;-62
2024/02/23 03:21:06;;;;;;;4.67;2.27;;;8.70;99.90;;;;;;4179079;28;20036;-52
2024/02/23 03:23:07;;;;;;;5.93;2.93;;;8.80;99.90;;;;;;4178369;28;20075;-62
2024/02/23 03:25:09;;;;;;;4.67;2.27;;;8.80;99.90;;;;;;4178761;28;20098;-62
2024/02/23 03:27:11;;;;;;;4.87;2.77;;;8.80;99.90;;;;;;4177403;28;20098;-56
2024/02/23 03:29:12;;;;;;;4.27;2.77;;;8.70;99.90;;;;;;4179043;28;20044;-55
2024/02/23 03:31:13;;;;;;;4.77;2.83;;;8.70;99.90;;;;;;4178135;28;20477;-61
2024/02/23 03:33:14;;;;;;;3.70;2.60;;;8.70;99.90;;;;;;4178310;28;20095;-53
2024/02/23 03:35:15;;;;;;;4.10;2.57;;;8.70;99.90;;;;;;4178554;28;20874;-56
2024/02/23 03:37:17;;;;;;;6.20;2.87;;;8.70;99.90;;;;;;4177624;28;20114;-61
2024/02/23 03:39:18;;;;;;;4.73;2.57;;;8.80;99.90;;;;;;4178338;28;20029;-55
2024/02/23 03:41:19;;;;;;;7.60;2.83;;;8.80;99.90;;;;;;4177567;28;20033;-57
2024/02/23 03:43:20;;;;;;;4.80;3.27;;;8.80;99.90;;;;;;4178890;28;20025;-61
2024/02/23 03:45:23;;;;;;;4.50;2.90;;;8.80;99.90;;;;;;4177091;28;20492;-61
2024/02/23 03:47:24;;;;;;;24.10;11.47;;;8.80;99.90;;;;;;4178177;28;20451;-56
2024/02/23 03:49:25;;;;;;;10.27;5.30;;;8.80;99.90;;;;;;4177842;28;20094;-52
2024/02/23 03:51:26;;;;;;;8.73;4.97;;;8.70;99.90;;;;;;4178295;28;20048;-60
2024/02/23 03:53:27;;;;;;;9.97;4.17;;;8.60;99.90;;;;;;4177349;28;20138;-60
2024/02/23 03:55:28;;;;;;;14.10;4.17;;;8.60;99.90;;;;;;4177994;28;20451;-58
2024/02/23 03:57:29;;;;;;;9.60;4.33;;;8.60;99.90;;;;;;4177318;28;20370;-60
2024/02/23 03:59:31;;;;;;;11.70;5.07;;;8.50;99.90;;;;;;4178458;28;20440;-61
2024/02/23 04:01:32;;;;;;;12.77;5.83;;;8.50;99.90;;;;;;4176911;28;20045;-52
2024/02/23 04:03:33;;;;;;;11.77;5.93;;;8.40;99.90;;;;;;4178556;28;20025;-61
2024/02/23 04:05:34;;;;;;;18.07;7.30;;;8.30;99.90;;;;;;4178263;28;20432;-60
2024/02/23 04:07:35;;;;;;;18.53;9.03;;;8.20;99.90;;;;;;4177023;28;20090;-62
2024/02/23 04:09:37;;;;;;;13.83;6.67;;;8.20;99.90;;;;;;4177852;28;20071;-60
2024/02/23 04:11:38;;;;;;;14.37;6.73;;;8.20;99.90;;;;;;4176974;28;20465;-61
2024/02/23 04:13:39;;;;;;;14.50;6.37;;;8.20;99.90;;;;;;4178335;28;20465;-61
2024/02/23 04:15:40;;;;;;;19.13;8.23;;;8.20;99.90;;;;;;4159169;28;20029;-55
2024/02/23 04:17:41;;;;;;;12.00;6.17;;;8.20;99.90;;;;;;4178146;28;20033;-58
2024/02/23 04:19:43;;;;;;;20.67;7.27;;;8.20;99.90;;;;;;4176407;28;20033;-61
2024/02/23 04:21:44;;;;;;;14.50;6.57;;;8.20;99.90;;;;;;4178252;28;20037;-62
2024/02/23 04:23:45;;;;;;;19.50;8.57;;;8.20;99.90;;;;;;4176408;28;20090;-59
2024/02/23 04:25:46;;;;;;;21.87;11.03;;;8.30;99.90;;;;;;4178481;28;20435;-60
2024/02/23 04:27:48;;;;;;;23.83;11.70;;;8.20;99.90;;;;;;4176495;28;20037;-58
2024/02/23 04:29:49;;;;;;;18.60;9.30;;;8.20;99.90;;;;;;4177620;28;20041;-63
2024/02/23 04:31:50;;;;;;;26.70;10.20;;;8.10;99.90;;;;;;4177257;28;20416;-59
2024/02/23 04:33:51;;;;;;;15.90;7.50;;;8.10;99.90;;;;;;4177863;28;20036;-62
2024/02/23 04:35:52;;;;;;;15.17;8.37;;;8.10;99.90;;;;;;4176620;28;20045;-59
2024/02/23 04:37:55;;;;;;;17.33;8.67;;;8.10;99.90;;;;;;4177360;28;20053;-63
2024/02/23 04:39:56;;;;;;;21.60;9.13;;;8.20;99.90;;;;;;4176973;28;20440;-61
2024/02/23 04:41:58;;;;;;;20.23;9.47;;;8.20;99.90;;;;;;4177289;28;20029;-60
2024/02/23 04:44:00;;;;;;;22.07;9.30;;;8.20;99.90;;;;;;4177909;28;20029;-57
2024/02/23 04:46:02;;;;;;;18.80;9.10;;;8.10;99.90;;;;;;4176496;28;20056;-62
2024/02/23 04:48:03;;;;;;;17.23;9.20;;;8.10;99.90;;;;;;4178419;28;20428;-60
2024/02/23 04:50:05;;;;;;;14.53;8.67;;;8.00;99.90;;;;;;4175997;28;20035;-57
2024/02/23 04:52:08;;;;;;;16.70;8.27;;;8.00;99.90;;;;;;4176832;28;20447;-62
2024/02/23 04:54:09;;;;;;;17.20;8.60;;;8.00;99.90;;;;;;4176445;28;20037;-62
2024/02/23 04:56:11;;;;;;;18.67;8.80;;;7.90;99.90;;;;;;4176738;28;20481;-60
2024/02/23 04:58:12;;;;;;;23.07;9.27;;;7.80;99.90;;;;;;4164625;28;20485;-58
2024/02/23 05:00:13;;;;;;;25.20;11.40;;;7.80;99.90;;;;;;4175964;28;20045;-58
2024/02/23 05:02:15;;;;;;;23.63;9.37;;;7.70;99.90;;;;;;4175943;28;20451;-61
2024/02/23 05:04:17;;;;;;;23.90;9.33;;;7.70;99.90;;;;;;4176998;28;20550;-58
2024/02/23 05:06:18;;;;;;;21.27;10.30;;;7.80;99.90;;;;;;4175832;28;20024;-57
2024/02/23 05:08:24;;;;;;;21.97;10.10;;;7.80;99.90;;;;;;4176924;28;20044;-60
2024/02/23 05:10:25;;;;;;;22.97;9.80;;;7.70;99.90;;;;;;4178455;28;20045;-61
2024/02/23 05:12:26;;;;;;;30.93;9.77;;;7.70;99.90;;;;;;4180319;28;20037;-61
2024/02/23 05:14:27;;;;;;;20.27;8.37;;;7.80;99.90;;;;;;4179389;28;20029;-60
2024/02/23 05:16:28;;;;;;;20.80;8.60;;;7.70;99.90;;;;;;4179526;28;20868;-62
2024/02/23 05:18:30;;;;;;;14.90;6.77;;;7.70;99.90;;;;;;4172759;28;20058;-57
2024/02/23 05:20:31;;;;;;;17.57;6.80;;;7.70;99.90;;;;;;4179140;28;20078;-59
2024/02/23 05:22:32;;;;;;;13.27;6.27;;;7.80;99.90;;;;;;4164281;28;20084;-60
2024/02/23 05:24:33;;;;;;;15.50;6.33;;;7.90;99.90;;;;;;4184787;28;20036;-58
2024/02/23 05:26:35;;;;;;;28.07;8.40;;;7.90;99.90;;;;;;4176384;28;20063;-59
2024/02/23 05:28:37;;;;;;;17.40;6.93;;;7.90;99.90;;;;;;4189804;28;20040;-61
2024/02/23 05:30:38;;;;;;;12.70;7.67;;;8.00;99.90;;;;;;4197424;28;20037;-56
2024/02/23 05:32:40;;;;;;;18.90;7.23;;;8.00;99.90;;;;;;4179144;28;20033;-61
2024/02/23 05:34:41;;;;;;;10.63;5.93;;;8.10;99.90;;;;;;4164287;28;20528;-60
2024/02/23 05:36:43;;;;;;;17.20;5.73;;;8.10;99.90;;;;;;4163124;28;20087;-67
2024/02/23 05:38:45;;;;;;;23.83;8.13;;;8.10;99.90;;;;;;4164374;28;20521;-61
2024/02/23 05:40:48;;;;;;;19.13;7.40;;;8.20;99.90;;;;;;4172560;28;20087;-62
2024/02/23 05:42:49;;;;;;;15.07;5.77;;;8.20;99.90;;;;;;4179913;28;20045;-61
2024/02/23 05:44:50;;;;;;;29.37;6.97;;;8.20;99.90;;;;;;4178412;28;20374;-65
2024/02/23 05:46:51;;;;;;;16.83;6.90;;;8.20;99.90;;;;;;4179415;28;20114;-62
2024/02/23 05:48:53;;;;;;;15.50;4.87;;;8.30;99.90;;;;;;4180069;28;20420;-61
2024/02/23 05:50:54;;;;;;;22.10;8.57;;;8.30;99.90;;;;;;4178593;28;20033;-62
2024/02/23 05:52:55;;;;;;;23.43;6.77;;;8.40;99.90;;;;;;4180057;28;20049;-65
2024/02/23 05:54:56;;;;;;;38.90;14.63;;;8.40;99.90;;;;;;4161641;28;20492;-58
2024/02/23 05:56:57;;;;;;;19.67;7.23;;;8.40;99.90;;;;;;4180150;28;20570;-63
2024/02/23 05:58:59;;;;;;;11.17;5.53;;;8.50;99.90;;;;;;4177287;28;20036;-67
2024/02/23 06:01:00;;;;;;;14.73;6.93;;;8.50;99.90;;;;;;4180098;28;20543;-60
2024/02/23 06:03:03;;;;;;;19.57;8.40;;;8.50;99.90;;;;;;4178710;28;20025;-60
2024/02/23 06:05:07;;;;;;;20.37;8.27;;;8.60;99.90;;;;;;4180734;28;20037;-61
2024/02/23 06:07:08;;;;;;;18.60;8.43;;;8.60;99.90;;;;;;4177980;28;20033;-61
2024/02/23 06:09:09;;;;;;;28.13;11.40;;;8.60;99.90;;;;;;4179938;28;20032;-61
2024/02/23 06:11:11;;;;;;;34.17;14.60;;;8.70;99.90;;;;;;4177599;28;20087;-60
2024/02/23 06:13:12;;;;;;;28.67;11.27;;;8.70;99.90;;;;;;4178867;28;20063;-54
2024/02/23 06:15:13;;;;;;;14.60;5.67;;;8.70;99.90;;;;;;4179115;28;20045;-58
2024/02/23 06:17:14;;;;;;;17.37;8.37;;;8.70;99.90;;;;;;4179065;28;20465;-57
2024/02/23 06:19:15;;;;;;;25.27;9.43;;;8.80;99.90;;;;;;4179563;28;20092;-58
2024/02/23 06:21:17;;;;;;;20.43;10.03;;;8.80;99.90;;;;;;4177717;28;20040;-62
2024/02/23 06:23:19;;;;;;;16.07;5.63;;;8.80;99.90;;;;;;4179754;28;20477;-59
2024/02/23 06:25:20;;;;;;;11.03;6.13;;;8.80;99.90;;;;;;4178837;28;20033;-62
2024/02/23 06:27:21;;;;;;;15.37;6.50;;;8.90;99.90;;;;;;4179893;28;20067;-61
2024/02/23 06:29:23;;;;;;;18.70;6.80;;;8.90;99.90;;;;;;4181221;28;20044;-59
2024/02/23 06:31:24;;;;;;;22.30;9.47;;;8.90;99.90;;;;;;4171886;28;20049;-61
2024/02/23 06:33:25;;;;;;;24.10;6.87;;;8.90;99.90;;;;;;4165367;28;20050;-62
2024/02/23 06:35:26;;;;;;;32.63;9.87;;;8.90;99.90;;;;;;4166604;28;20040;-55
2024/02/23 06:37:27;;;;;;;24.13;8.50;;;8.90;99.90;;;;;;4172206;28;20470;-58
2024/02/23 06:39:30;;;;;;;29.37;8.43;;;8.90;99.90;;;;;;4159516;28;20056;-56
2024/02/23 06:41:31;;;;;;;15.50;6.80;;;8.90;99.90;;;;;;4170284;28;20091;-56
2024/02/23 06:43:32;;;;;;;29.43;8.60;;;8.90;99.90;;;;;;4177781;28;20055;-57
2024/02/23 06:45:34;;;;;;;19.37;7.17;;;9.00;99.90;;;;;;4177124;28;20032;-58
2024/02/23 06:47:35;;;;;;;22.53;7.13;;;9.00;99.90;;;;;;4162046;28;20049;-56
2024/02/23 06:49:36;;;;;;;20.57;11.07;;;9.10;99.90;;;;;;4167288;28;20098;-52
2024/02/23 06:51:40;;;;;;;26.50;10.60;;;9.10;99.90;;;;;;4177506;28;20110;-55
2024/02/23 06:53:41;;;;;;;27.83;11.20;;;9.20;99.90;;;;;;4179852;28;20024;-57
2024/02/23 06:55:43;;;;;;;15.23;5.37;;;9.30;99.90;;;;;;4178621;28;20037;-61
2024/02/23 06:57:44;;;;;;;10.03;4.73;;;9.40;99.90;;;;;;4179405;28;20492;-59
2024/02/23 06:59:45;;;;;;;6.10;3.70;;;9.50;99.90;;;;;;4178218;28;20086;-58
2024/02/23 07:01:50;;;;;;;5.53;3.37;;;9.60;99.90;;;;;;4167748;28;20049;-56
2024/02/23 07:03:52;;;;;;;5.90;3.03;;;9.60;99.90;;;;;;4161289;28;20104;-61
2024/02/23 07:05:53;;;;;;;9.13;3.23;;;9.70;99.90;;;;;;4174971;28;20374;-60
2024/02/23 07:07:54;;;;;;;11.00;3.40;;;9.70;99.90;;;;;;4177971;28;20289;-60
2024/02/23 07:09:56;;;;;;;8.60;3.30;;;9.80;99.90;;;;;;4179337;28;20090;-58
2024/02/23 07:11:57;;;;;;;5.60;3.07;;;9.80;99.90;;;;;;4174267;28;20094;-60
2024/02/23 07:13:58;;;;;;;5.70;3.00;;;9.80;99.90;;;;;;4178506;28;20833;-59
2024/02/23 07:16:00;;;;;;;3.97;3.10;;;9.90;99.90;;;;;;4168171;28;20080;-62
2024/02/23 07:18:02;;;;;;;6.27;3.17;;;9.90;99.90;;;;;;4163240;28;20107;-62
2024/02/23 07:20:05;;;;;;;6.43;2.60;;;10.00;99.90;;;;;;4173537;28;20082;-61
2024/02/23 07:22:06;;;;;;;5.63;3.03;;;10.00;99.90;;;;;;4168085;28;20057;-59
2024/02/23 07:24:08;;;;;;;6.30;2.90;;;10.10;99.90;;;;;;4170972;28;20041;-57
2024/02/23 07:26:09;;;;;;;5.37;3.13;;;10.20;99.90;;;;;;4172368;28;20029;-61
2024/02/23 07:28:10;;;;;;;6.20;2.93;;;10.20;99.90;;;;;;4178164;28;20107;-56
2024/02/23 07:30:12;;;;;;;7.77;2.90;;;10.30;99.90;;;;;;4176804;28;20045;-60
2024/02/23 07:32:13;;;;;;;7.33;3.57;;;10.40;99.90;;;;;;4176529;28;20037;-62
2024/02/23 07:34:15;;;;;;;6.30;3.27;;;10.40;99.90;;;;;;4172809;28;20025;-56
2024/02/23 07:36:16;;;;;;;14.87;7.40;;;10.50;99.90;;;;;;4170628;28;20032;-59
2024/02/23 07:38:18;;;;;;;7.13;4.67;;;10.60;99.90;;;;;;4177271;28;20653;-60
2024/02/23 07:40:19;;;;;;;5.73;3.47;;;10.70;99.90;;;;;;4178924;28;20087;-56
2024/02/23 07:42:20;;;;;;;6.77;3.50;;;10.70;99.90;;;;;;4177083;28;20542;-53
2024/02/23 07:44:21;;;;;;;5.43;2.93;;;10.70;99.80;;;;;;4177405;28;20041;-62
2024/02/23 07:46:23;;;;;;;8.03;3.77;;;10.80;99.70;;;;;;4177495;28;20094;-53
2024/02/23 07:48:24;;;;;;;8.63;3.10;;;10.80;99.50;;;;;;4176803;28;20052;-56
2024/02/23 07:50:25;;;;;;;8.63;4.17;;;10.80;99.10;;;;;;4177260;28;20432;-52
2024/02/23 07:52:27;;;;;;;5.60;3.07;;;10.80;99.10;;;;;;4177123;28;20440;-52
2024/02/23 07:54:28;;;;;;;5.00;2.67;;;10.90;99.00;;;;;;4177452;28;20091;-60
2024/02/23 07:56:30;;;;;;;5.47;3.03;;;10.90;98.80;;;;;;4176089;28;20048;-60
2024/02/23 07:58:31;;;;;;;6.57;3.53;;;10.90;98.80;;;;;;4178660;28;20617;-60
2024/02/23 08:00:34;;;;;;;7.27;3.13;;;11.00;99.00;;;;;;4176002;28;20044;-61
2024/02/23 08:02:36;;;;;;;4.63;2.83;;;11.00;99.00;;;;;;4177555;28;20107;-61
2024/02/23 08:04:37;;;;;;;7.00;3.03;;;11.00;98.80;;;;;;4177519;28;20040;-62
2024/02/23 08:06:39;;;;;;;5.80;3.07;;;11.00;98.70;;;;;;4172377;28;20041;-62
2024/02/23 08:08:40;;;;;;;5.20;2.80;;;11.10;98.80;;;;;;4164085;28;20551;-58
2024/02/23 08:10:41;;;;;;;4.77;2.67;;;11.10;98.90;;;;;;4178223;28;20155;-61
2024/02/23 08:12:43;;;;;;;3.17;2.47;;;11.00;98.40;;;;;;4176659;28;20040;-62
2024/02/23 08:14:45;;;;;;;5.50;3.10;;;11.00;98.50;;;;;;4177390;28;20037;-58
2024/02/23 08:16:46;;;;;;;6.73;4.07;;;10.90;98.70;;;;;;4171058;28;20034;-62
2024/02/23 08:18:47;;;;;;;5.67;2.87;;;10.90;98.80;;;;;;4161109;28;20103;-56
2024/02/23 08:20:49;;;;;;;7.40;3.77;;;10.90;98.70;;;;;;4165763;28;20501;-53
2024/02/23 08:22:50;;;;;;;5.23;3.30;;;10.90;98.70;;;;;;4175935;28;20112;-60
2024/02/23 08:24:51;;;;;;;6.50;3.47;;;10.90;98.70;;;;;;4177041;28;20071;-60
2024/02/23 08:26:53;;;;;;;5.33;3.23;;;10.80;98.80;;;;;;4169476;28;20041;-62
2024/02/23 08:28:54;;;;;;;4.87;3.13;;;10.80;98.90;;;;;;4161466;28;20660;-59
2024/02/23 08:30:56;;;;;;;5.50;2.63;;;10.80;99.00;;;;;;4166206;28;20079;-64
2024/02/23 08:32:57;;;;;;;4.80;2.57;;;10.80;99.20;;;;;;4177566;28;20415;-64
2024/02/23 08:34:59;;;;;;;6.40;3.30;;;10.70;99.40;;;;;;4169541;28;20118;-63
2024/02/23 08:37:01;;;;;;;5.23;2.70;;;10.70;99.60;;;;;;4173842;28;20111;-61
2024/02/23 08:39:03;;;;;;;9.90;3.00;;;10.60;99.70;;;;;;4176263;28;20467;-60
2024/02/23 08:41:04;;;;;;;4.57;2.73;;;10.60;99.90;;;;;;4177456;28;20032;-62
2024/02/23 08:43:05;;;;;;;5.97;2.93;;;10.60;99.90;;;;;;4160061;28;20914;-60
2024/02/23 08:45:07;;;;;;;7.10;3.00;;;10.60;99.90;;;;;;4160998;28;20038;-60
2024/02/23 08:47:08;;;;;;;7.73;2.90;;;10.60;99.90;;;;;;4159718;28;20103;-63
2024/02/23 08:49:09;;;;;;;3.00;2.20;;;10.60;99.90;;;;;;4162587;28;20030;-63
2024/02/23 08:51:11;;;;;;;4.40;2.73;;;10.60;99.90;;;;;;4176555;28;20036;-61
2024/02/23 08:53:12;;;;;;;7.87;3.23;;;10.50;99.90;;;;;;4161426;28;20071;-63
2024/02/23 08:55:13;;;;;;;5.00;2.50;;;10.50;99.90;;;;;;4160954;28;20033;-60
2024/02/23 08:57:19;;;;;;;4.67;2.83;;;10.50;99.90;;;;;;4166552;28;20079;-59
2024/02/23 08:59:20;;;;;;;5.00;2.73;;;10.50;99.90;;;;;;4177321;28;20087;-58
2024/02/23 09:01:21;;;;;;;7.07;4.03;;;10.50;99.90;;;;;;4176888;28;20025;-55
2024/02/23 09:03:22;;;;;;;5.00;3.03;;;10.50;99.90;;;;;;4176152;28;20092;-61
2024/02/23 09:05:23;;;;;;;3.73;2.60;;;10.50;99.90;;;;;;4176256;28;20071;-59
2024/02/23 09:07:25;;;;;;;5.00;2.83;;;10.50;99.90;;;;;;4171575;28;20095;-60
2024/02/23 09:09:26;;;;;;;6.23;3.10;;;10.40;99.90;;;;;;4174611;28;20370;-56
2024/02/23 09:11:27;;;;;;;4.33;2.50;;;10.40;99.90;;;;;;4177302;28;20082;-60
2024/02/23 09:13:30;;;;;;;4.67;2.23;;;10.40;99.90;;;;;;4175554;28;20415;-62
2024/02/23 09:15:31;;;;;;;4.23;2.40;;;10.40;99.90;;;;;;4176542;28;20049;-59
2024/02/23 09:17:32;;;;;;;3.63;2.40;;;10.50;99.90;;;;;;4174998;28;20033;-58
2024/02/23 09:19:34;;;;;;;5.87;2.50;;;10.50;99.90;;;;;;4176317;28;20098;-60
2024/02/23 09:21:35;;;;;;;5.33;3.27;;;10.50;99.90;;;;;;4175080;28;20118;-57
2024/02/23 09:23:36;;;;;;;4.27;2.30;;;10.50;99.90;;;;;;4176554;28;20099;-58
2024/02/23 09:25:38;;;;;;;3.60;2.50;;;10.60;99.90;;;;;;4176679;28;20037;-59
2024/02/23 09:27:43;;;;;;;4.80;2.80;;;10.60;99.90;;;;;;4170748;28;20079;-58
2024/02/23 09:29:44;;;;;;;3.23;2.30;;;10.60;99.90;;;;;;4160221;28;20045;-62
2024/02/23 09:31:45;;;;;;;3.37;2.53;;;10.50;99.90;;;;;;4173606;28;20420;-59
2024/02/23 09:33:48;;;;;;;4.63;2.47;;;10.50;99.90;;;;;;4176292;28;20439;-62
2024/02/23 09:35:49;;;;;;;3.73;2.50;;;10.60;99.90;;;;;;4176867;28;20682;-58
2024/02/23 09:37:51;;;;;;;4.67;2.53;;;10.50;99.90;;;;;;4173333;28;20404;-59
2024/02/23 09:39:52;;;;;;;3.50;2.30;;;10.50;99.90;;;;;;4158029;28;20045;-61
2024/02/23 09:41:54;;;;;;;2.63;1.90;;;10.60;99.90;;;;;;4175847;28;20493;-61
2024/02/23 09:43:58;;;;;;;6.30;2.87;;;10.60;99.90;;;;;;4175721;28;20029;-59
2024/02/23 09:45:59;;;;;;;3.97;2.53;;;10.60;99.90;;;;;;4176731;28;20079;-57
2024/02/23 09:48:03;;;;;;;3.87;2.87;;;10.60;99.90;;;;;;4183759;28;20048;-62
2024/02/23 09:50:05;;;;;;;5.63;3.27;;;10.70;99.90;;;;;;4160543;28;20037;-63
2024/02/23 09:52:09;;;;;;;10.37;4.33;;;10.70;99.90;;;;;;4168184;28;20029;-56
2024/02/23 09:54:11;;;;;;;7.07;3.53;;;10.70;99.90;;;;;;4175915;28;20087;-63
2024/02/23 09:56:17;;;;;;;5.87;3.57;;;10.70;99.90;;;;;;4176254;28;20488;-57
2024/02/23 09:58:19;;;;;;;4.67;3.20;;;10.60;99.90;;;;;;4176402;28;20056;-62
2024/02/23 10:00:21;;;;;;;7.60;3.27;;;10.50;99.90;;;;;;4176429;28;20059;-60
2024/02/23 10:02:22;;;;;;;7.80;4.50;;;10.40;99.90;;;;;;4177795;28;20045;-61
2024/02/23 10:04:26;;;;;;;5.83;4.33;;;10.30;99.90;;;;;;4178514;28;20021;-61
2024/02/23 10:06:27;;;;;;;6.30;4.30;;;10.20;99.90;;;;;;4179470;28;20033;-56
2024/02/23 10:08:29;;;;;;;6.20;3.97;;;10.10;99.90;;;;;;4178722;28;20099;-60
2024/02/23 10:10:33;;;;;;;6.40;3.93;;;10.10;99.90;;;;;;4178734;28;20090;-62
2024/02/23 10:12:35;;;;;;;8.70;4.00;;;10.10;99.90;;;;;;4172920;28;20366;-56
2024/02/23 10:14:36;;;;;;;7.13;4.23;;;10.10;99.90;;;;;;4178661;28;20416;-56
2024/02/23 10:16:38;;;;;;;6.57;3.53;;;10.10;99.90;;;;;;4179363;28;20111;-56
2024/02/23 10:18:39;;;;;;;6.87;4.57;;;10.20;99.90;;;;;;4177972;28;20099;-57
2024/02/23 10:20:40;;;;;;;7.07;4.47;;;10.20;99.90;;;;;;4179162;28;20493;-56
2024/02/23 10:22:42;;;;;;;6.17;3.43;;;10.20;99.90;;;;;;4176661;28;20110;-56
2024/02/23 10:24:43;;;;;;;6.67;4.10;;;10.30;99.90;;;;;;4178762;28;20103;-55
2024/02/23 10:26:44;;;;;;;9.93;4.83;;;10.30;99.90;;;;;;4177325;28;20091;-57
2024/02/23 10:28:50;;;;;;;9.07;4.37;;;10.40;99.90;;;;;;4178777;28;20033;-56
2024/02/23 10:30:52;;;;;;;7.07;4.97;;;10.40;99.90;;;;;;4177882;28;20444;-57
2024/02/23 10:32:56;;;;;;;11.83;5.57;;;10.50;99.90;;;;;;4174987;28;20083;-59
2024/02/23 10:35:00;;;;;;;7.60;4.73;;;10.50;99.90;;;;;;4177857;28;20033;-56